Friday, July 31, 2015, 11:29 PM EDT
Back to Local

KMPO, Mt Pocono Pocono Mountains

Location: Pocono Summit, PA, United States Lat: 41.133
Local Time: 11:29 PM EDT ( 3:29 GMT) Lon: -75.383
Time Zone: US/Eastern Elev: 1915 ft

Show me the last for .
Show Coded

Time T Td Feel RH Dir Speed Gust Alt SLP Vis Weather Sky Remarks
2015-07-31 22:53 65 58 - 78 280° 5 - 29.92 29.88 10 CLR None
2015-07-31 21:53 65 59 - 81 260° 3 - 29.91 29.88 10 CLR None
2015-07-31 20:53 69 59 - 70 250° 3 - 29.90 29.87 10 CLR None
2015-07-31 19:53 74 57 77 55 260° 5 - 29.89 29.86 10 CLR 6-hr Min Temp (8pm): 73.9°F
6-hr Max Temp (8pm): 81.0°F
2015-07-31 18:53 77 56 78 48 250° 8 - 29.90 29.86 10 CLR None
2015-07-31 17:53 78 55 79 45 280° 9 - 29.91 29.87 10 CLR None
2015-07-31 16:53 79 54 79 42 250° 6 - 29.92 29.88 10 CLR None
2015-07-31 15:53 80 52 - 37 Variable 5 - 29.93 29.89 10 SCT070 None
2015-07-31 14:53 80 52 - 37 290° 9 - 29.94 29.90 10 FEW060 None
2015-07-31 14:25 79 51 - 37 300° 10 - 29.94 - 10 FEW001 None
2015-07-31 13:53 79 51 - 37 340° 10 18 29.94 29.91 10 CLR 6-hr Min Temp (2pm): 64.9°F
6-hr Max Temp (2pm): 80.1°F
2015-07-31 12:53 78 51 - 38 310° 9 20 29.96 29.93 10 CLR None
2015-07-31 11:53 76 52 77 43 320° 15 22 29.97 29.93 10 CLR None
2015-07-31 09:53 72 58 76 61 290° 9 - 29.97 29.93 10 CLR None
2015-07-31 08:53 69 57 - 65 290° 8 - 29.97 29.93 10 CLR None
2015-07-31 08:06 66 57 - 72 290° 7 - 29.97 - 10 FEW002 None
2015-07-31 07:53 65 56 - 72 290° 6 - 29.97 29.93 10 CLR 6-hr Min Temp (8am): 55.9°F
6-hr Max Temp (8am): 64.9°F
2015-07-31 06:53 58 55 - 90 300° 3 - 29.95 29.92 10 CLR None
2015-07-31 05:53 57 54 - 89 300° 3 - 29.94 29.91 10 CLR None
2015-07-31 04:53 59 54 - 83 330° 6 - 29.93 29.90 10 CLR None
2015-07-31 03:53 61 55 - 80 320° 7 - 29.93 29.90 10 CLR None
2015-07-31 02:53 61 58 - 89 - Calm - 29.94 29.91 10 CLR None
2015-07-31 01:53 63 59 - 86 290° 5 - 29.95 - 10 CLR 6-hr Min Temp (2am): 61.0°F
6-hr Max Temp (2am): 75.9°F
2015-07-31 00:53 62 58 - 86 310° 3 - 29.95 - 10 CLR None
2015-07-30 23:53 66 59 - 78 330° 5 - 29.95 - 10 CLR None

Support USWX by starting your Amazon purchase here.